sensor_id;sensor_type;location;lat;lon;timestamp;temperature;humidity
14397;DHT22;50653;47.810;13.022;2022-09-28T00:03:32;11.20;99.90
14397;DHT22;50653;47.810;13.022;2022-09-28T00:06:03;11.20;99.90
14397;DHT22;50653;47.810;13.022;2022-09-28T00:08:30;11.20;99.90
14397;DHT22;50653;47.810;13.022;2022-09-28T00:10:56;11.10;99.90
14397;DHT22;50653;47.810;13.022;2022-09-28T00:13:23;11.00;99.90
14397;DHT22;50653;47.810;13.022;2022-09-28T00:15:59;11.10;99.90
14397;DHT22;50653;47.810;13.022;2022-09-28T00:18:26;11.20;99.90
14397;DHT22;50653;47.810;13.022;2022-09-28T00:21:04;11.10;99.90
14397;DHT22;50653;47.810;13.022;2022-09-28T00:23:30;11.20;99.90
14397;DHT22;50653;47.810;13.022;2022-09-28T00:26:01;11.10;99.90
14397;DHT22;50653;47.810;13.022;2022-09-28T00:28:26;11.10;99.90
14397;DHT22;50653;47.810;13.022;2022-09-28T00:30:55;11.00;99.90
14397;DHT22;50653;47.810;13.022;2022-09-28T00:33:21;10.90;99.90
14397;DHT22;50653;47.810;13.022;2022-09-28T00:35:54;11.00;99.90
14397;DHT22;50653;47.810;13.022;2022-09-28T00:38:19;11.10;99.90
14397;DHT22;50653;47.810;13.022;2022-09-28T00:40:45;11.00;99.90
14397;DHT22;50653;47.810;13.022;2022-09-28T00:43:18;11.00;99.90
14397;DHT22;50653;47.810;13.022;2022-09-28T00:45:44;11.10;99.90
14397;DHT22;50653;47.810;13.022;2022-09-28T00:48:13;11.10;99.90
14397;DHT22;50653;47.810;13.022;2022-09-28T00:50:38;11.20;99.90
14397;DHT22;50653;47.810;13.022;2022-09-28T00:53:28;11.20;99.90
14397;DHT22;50653;47.810;13.022;2022-09-28T00:56:01;11.20;99.90
14397;DHT22;50653;47.810;13.022;2022-09-28T00:58:32;11.10;99.90
14397;DHT22;50653;47.810;13.022;2022-09-28T01:00:59;11.10;99.90
14397;DHT22;50653;47.810;13.022;2022-09-28T01:03:25;11.10;99.90
14397;DHT22;50653;47.810;13.022;2022-09-28T01:05:52;11.20;99.90
14397;DHT22;50653;47.810;13.022;2022-09-28T01:08:20;11.10;99.90
14397;DHT22;50653;47.810;13.022;2022-09-28T01:10:47;11.00;99.90
14397;DHT22;50653;47.810;13.022;2022-09-28T01:13:19;11.20;99.90
14397;DHT22;50653;47.810;13.022;2022-09-28T01:21:39;11.10;99.90
14397;DHT22;50653;47.810;13.022;2022-09-28T01:27:04;11.20;99.90
14397;DHT22;50653;47.810;13.022;2022-09-28T01:32:46;11.20;99.90
14397;DHT22;50653;47.810;13.022;2022-09-28T01:35:25;11.20;99.90
14397;DHT22;50653;47.810;13.022;2022-09-28T01:40:33;11.10;99.90
14397;DHT22;50653;47.810;13.022;2022-09-28T01:43:13;11.10;99.90
14397;DHT22;50653;47.810;13.022;2022-09-28T01:45:45;11.10;99.90
14397;DHT22;50653;47.810;13.022;2022-09-28T01:48:16;11.10;99.90
14397;DHT22;50653;47.810;13.022;2022-09-28T01:50:45;11.10;99.90
14397;DHT22;50653;47.810;13.022;2022-09-28T01:53:22;11.00;99.90
14397;DHT22;50653;47.810;13.022;2022-09-28T01:55:57;11.00;99.90
14397;DHT22;50653;47.810;13.022;2022-09-28T01:58:45;11.00;99.90
14397;DHT22;50653;47.810;13.022;2022-09-28T02:01:27;11.00;99.90
14397;DHT22;50653;47.810;13.022;2022-09-28T02:04:11;11.00;99.90
14397;DHT22;50653;47.810;13.022;2022-09-28T02:06:49;11.00;99.90
14397;DHT22;50653;47.810;13.022;2022-09-28T02:09:23;11.10;99.90
14397;DHT22;50653;47.810;13.022;2022-09-28T02:12:00;11.10;99.90
14397;DHT22;50653;47.810;13.022;2022-09-28T02:14:29;10.90;99.90
14397;DHT22;50653;47.810;13.022;2022-09-28T02:16:55;11.00;99.90
14397;DHT22;50653;47.810;13.022;2022-09-28T02:19:29;10.90;99.90
14397;DHT22;50653;47.810;13.022;2022-09-28T02:22:25;10.80;99.90
14397;DHT22;50653;47.810;13.022;2022-09-28T02:24:55;10.90;99.90
14397;DHT22;50653;47.810;13.022;2022-09-28T02:27:41;10.90;99.90
14397;DHT22;50653;47.810;13.022;2022-09-28T02:30:07;10.90;99.90
14397;DHT22;50653;47.810;13.022;2022-09-28T02:32:35;11.00;99.90
14397;DHT22;50653;47.810;13.022;2022-09-28T02:35:11;11.00;99.90
14397;DHT22;50653;47.810;13.022;2022-09-28T02:37:38;10.80;99.90
14397;DHT22;50653;47.810;13.022;2022-09-28T02:42:54;10.70;99.90
14397;DHT22;50653;47.810;13.022;2022-09-28T02:45:28;10.80;99.90
14397;DHT22;50653;47.810;13.022;2022-09-28T02:51:39;11.00;99.90
14397;DHT22;50653;47.810;13.022;2022-09-28T02:54:30;10.90;99.90
14397;DHT22;50653;47.810;13.022;2022-09-28T02:57:26;10.90;99.90
14397;DHT22;50653;47.810;13.022;2022-09-28T03:00:08;10.90;99.90
14397;DHT22;50653;47.810;13.022;2022-09-28T03:02:48;10.90;99.90
14397;DHT22;50653;47.810;13.022;2022-09-28T03:07:58;10.70;99.90
14397;DHT22;50653;47.810;13.022;2022-09-28T03:10:36;10.80;99.90
14397;DHT22;50653;47.810;13.022;2022-09-28T03:13:03;10.60;99.90
14397;DHT22;50653;47.810;13.022;2022-09-28T03:15:33;10.70;99.90
14397;DHT22;50653;47.810;13.022;2022-09-28T03:17:59;10.60;99.90
14397;DHT22;50653;47.810;13.022;2022-09-28T03:20:27;10.50;99.90
14397;DHT22;50653;47.810;13.022;2022-09-28T03:22:53;10.70;99.90
14397;DHT22;50653;47.810;13.022;2022-09-28T03:25:19;10.70;99.90
14397;DHT22;50653;47.810;13.022;2022-09-28T03:27:44;10.70;99.90
14397;DHT22;50653;47.810;13.022;2022-09-28T03:30:12;10.60;99.90
14397;DHT22;50653;47.810;13.022;2022-09-28T03:32:41;10.50;99.90
14397;DHT22;50653;47.810;13.022;2022-09-28T03:35:08;10.60;99.90
14397;DHT22;50653;47.810;13.022;2022-09-28T03:37:34;10.60;99.90
14397;DHT22;50653;47.810;13.022;2022-09-28T03:40:01;10.60;99.90
14397;DHT22;50653;47.810;13.022;2022-09-28T03:42:27;10.60;99.90
14397;DHT22;50653;47.810;13.022;2022-09-28T03:44:53;10.60;99.90
14397;DHT22;50653;47.810;13.022;2022-09-28T03:47:20;10.60;99.90
14397;DHT22;50653;47.810;13.022;2022-09-28T03:49:46;10.50;99.90
14397;DHT22;50653;47.810;13.022;2022-09-28T03:52:12;10.50;99.90
14397;DHT22;50653;47.810;13.022;2022-09-28T03:54:39;10.60;99.90
14397;DHT22;50653;47.810;13.022;2022-09-28T03:57:05;10.70;99.90
14397;DHT22;50653;47.810;13.022;2022-09-28T03:59:31;10.70;99.90
14397;DHT22;50653;47.810;13.022;2022-09-28T04:01:57;10.70;99.90
14397;DHT22;50653;47.810;13.022;2022-09-28T04:04:23;10.70;99.90
14397;DHT22;50653;47.810;13.022;2022-09-28T04:06:48;10.70;99.90
14397;DHT22;50653;47.810;13.022;2022-09-28T04:09:14;10.70;99.90
14397;DHT22;50653;47.810;13.022;2022-09-28T04:11:41;10.70;99.90
14397;DHT22;50653;47.810;13.022;2022-09-28T04:14:07;10.70;99.90
14397;DHT22;50653;47.810;13.022;2022-09-28T04:16:33;10.60;99.90
14397;DHT22;50653;47.810;13.022;2022-09-28T04:19:08;10.70;99.90
14397;DHT22;50653;47.810;13.022;2022-09-28T04:21:54;10.60;99.90
14397;DHT22;50653;47.810;13.022;2022-09-28T04:24:21;10.60;99.90
14397;DHT22;50653;47.810;13.022;2022-09-28T04:26:47;10.70;99.90
14397;DHT22;50653;47.810;13.022;2022-09-28T04:29:14;10.70;99.90
14397;DHT22;50653;47.810;13.022;2022-09-28T04:31:53;10.70;99.90
14397;DHT22;50653;47.810;13.022;2022-09-28T04:34:25;10.60;99.90
14397;DHT22;50653;47.810;13.022;2022-09-28T04:36:51;10.50;99.90
14397;DHT22;50653;47.810;13.022;2022-09-28T04:39:17;10.60;99.90
14397;DHT22;50653;47.810;13.022;2022-09-28T04:41:50;10.40;99.90
14397;DHT22;50653;47.810;13.022;2022-09-28T04:44:15;10.40;99.90
14397;DHT22;50653;47.810;13.022;2022-09-28T04:46:43;10.50;99.90
14397;DHT22;50653;47.810;13.022;2022-09-28T04:49:27;10.40;99.90
14397;DHT22;50653;47.810;13.022;2022-09-28T04:51:56;10.40;99.90
14397;DHT22;50653;47.810;13.022;2022-09-28T04:54:22;10.50;99.90
14397;DHT22;50653;47.810;13.022;2022-09-28T04:56:47;10.40;99.90
14397;DHT22;50653;47.810;13.022;2022-09-28T04:59:13;10.40;99.90
14397;DHT22;50653;47.810;13.022;2022-09-28T05:01:40;10.40;99.90
14397;DHT22;50653;47.810;13.022;2022-09-28T05:04:24;10.50;99.90
14397;DHT22;50653;47.810;13.022;2022-09-28T05:06:58;10.50;99.90
14397;DHT22;50653;47.810;13.022;2022-09-28T05:09:23;10.50;99.90
14397;DHT22;50653;47.810;13.022;2022-09-28T05:11:51;10.30;99.90
14397;DHT22;50653;47.810;13.022;2022-09-28T05:14:22;10.40;99.90
14397;DHT22;50653;47.810;13.022;2022-09-28T05:16:49;10.40;99.90
14397;DHT22;50653;47.810;13.022;2022-09-28T05:19:21;10.50;99.90
14397;DHT22;50653;47.810;13.022;2022-09-28T05:21:47;10.50;99.90
14397;DHT22;50653;47.810;13.022;2022-09-28T05:24:13;10.40;99.90
14397;DHT22;50653;47.810;13.022;2022-09-28T05:26:40;10.50;99.90
14397;DHT22;50653;47.810;13.022;2022-09-28T05:29:08;10.50;99.90
14397;DHT22;50653;47.810;13.022;2022-09-28T05:32:09;10.50;99.90
14397;DHT22;50653;47.810;13.022;2022-09-28T05:34:55;10.50;99.90
14397;DHT22;50653;47.810;13.022;2022-09-28T05:37:27;10.50;99.90
14397;DHT22;50653;47.810;13.022;2022-09-28T05:39:53;10.50;99.90
14397;DHT22;50653;47.810;13.022;2022-09-28T05:42:19;10.50;99.90
14397;DHT22;50653;47.810;13.022;2022-09-28T05:44:44;10.40;99.90
14397;DHT22;50653;47.810;13.022;2022-09-28T05:47:11;10.40;99.90
14397;DHT22;50653;47.810;13.022;2022-09-28T05:49:38;10.40;99.90
14397;DHT22;50653;47.810;13.022;2022-09-28T05:52:03;10.40;99.90
14397;DHT22;50653;47.810;13.022;2022-09-28T05:54:30;10.30;99.90
14397;DHT22;50653;47.810;13.022;2022-09-28T05:56:56;10.30;99.90
14397;DHT22;50653;47.810;13.022;2022-09-28T05:59:22;10.30;99.90
14397;DHT22;50653;47.810;13.022;2022-09-28T06:01:48;10.40;99.90
14397;DHT22;50653;47.810;13.022;2022-09-28T06:04:14;10.40;99.90
14397;DHT22;50653;47.810;13.022;2022-09-28T06:06:42;10.40;99.90
14397;DHT22;50653;47.810;13.022;2022-09-28T06:09:08;10.40;99.90
14397;DHT22;50653;47.810;13.022;2022-09-28T06:11:48;10.40;99.90
14397;DHT22;50653;47.810;13.022;2022-09-28T06:14:30;10.40;99.90
14397;DHT22;50653;47.810;13.022;2022-09-28T06:16:55;10.50;99.90
14397;DHT22;50653;47.810;13.022;2022-09-28T06:19:21;10.50;99.90
14397;DHT22;50653;47.810;13.022;2022-09-28T06:22:05;10.60;99.90
14397;DHT22;50653;47.810;13.022;2022-09-28T06:24:35;10.60;99.90
14397;DHT22;50653;47.810;13.022;2022-09-28T06:27:01;10.60;99.90
14397;DHT22;50653;47.810;13.022;2022-09-28T06:29:27;10.70;99.90
14397;DHT22;50653;47.810;13.022;2022-09-28T06:31:53;10.70;99.90
14397;DHT22;50653;47.810;13.022;2022-09-28T06:34:20;10.60;99.90
14397;DHT22;50653;47.810;13.022;2022-09-28T06:36:46;10.70;99.90
14397;DHT22;50653;47.810;13.022;2022-09-28T06:39:12;10.70;99.90
14397;DHT22;50653;47.810;13.022;2022-09-28T06:41:39;10.70;99.90
14397;DHT22;50653;47.810;13.022;2022-09-28T06:44:14;10.80;99.90
14397;DHT22;50653;47.810;13.022;2022-09-28T06:47:02;10.80;99.90
14397;DHT22;50653;47.810;13.022;2022-09-28T06:49:51;10.70;99.90
14397;DHT22;50653;47.810;13.022;2022-09-28T06:52:38;10.80;99.90
14397;DHT22;50653;47.810;13.022;2022-09-28T06:55:11;10.80;99.90
14397;DHT22;50653;47.810;13.022;2022-09-28T06:57:44;10.80;99.90
14397;DHT22;50653;47.810;13.022;2022-09-28T07:00:10;10.70;99.90
14397;DHT22;50653;47.810;13.022;2022-09-28T07:02:36;10.80;99.90
14397;DHT22;50653;47.810;13.022;2022-09-28T07:05:20;10.80;99.90
14397;DHT22;50653;47.810;13.022;2022-09-28T07:08:10;10.80;99.90
14397;DHT22;50653;47.810;13.022;2022-09-28T07:10:42;10.80;99.90
14397;DHT22;50653;47.810;13.022;2022-09-28T07:13:23;10.80;99.90
14397;DHT22;50653;47.810;13.022;2022-09-28T07:15:56;10.80;99.90
14397;DHT22;50653;47.810;13.022;2022-09-28T07:18:25;10.70;99.90
14397;DHT22;50653;47.810;13.022;2022-09-28T07:20:54;10.80;99.90
14397;DHT22;50653;47.810;13.022;2022-09-28T07:23:22;10.80;99.90
14397;DHT22;50653;47.810;13.022;2022-09-28T07:26:06;10.80;99.90
14397;DHT22;50653;47.810;13.022;2022-09-28T07:28:42;10.80;99.90
14397;DHT22;50653;47.810;13.022;2022-09-28T07:31:29;10.80;99.90
14397;DHT22;50653;47.810;13.022;2022-09-28T07:34:10;10.80;99.90
14397;DHT22;50653;47.810;13.022;2022-09-28T07:36:54;10.80;99.90
14397;DHT22;50653;47.810;13.022;2022-09-28T07:39:22;10.80;99.90
14397;DHT22;50653;47.810;13.022;2022-09-28T07:41:48;10.80;99.90
14397;DHT22;50653;47.810;13.022;2022-09-28T07:44:14;10.80;99.90
14397;DHT22;50653;47.810;13.022;2022-09-28T07:46:40;10.80;99.90
14397;DHT22;50653;47.810;13.022;2022-09-28T07:49:15;10.90;99.90
14397;DHT22;50653;47.810;13.022;2022-09-28T07:52:00;10.90;99.90
14397;DHT22;50653;47.810;13.022;2022-09-28T07:54:25;10.90;99.90
14397;DHT22;50653;47.810;13.022;2022-09-28T07:57:04;10.90;99.90
14397;DHT22;50653;47.810;13.022;2022-09-28T07:59:58;11.00;99.90
14397;DHT22;50653;47.810;13.022;2022-09-28T08:02:40;10.90;99.90
14397;DHT22;50653;47.810;13.022;2022-09-28T08:05:06;10.90;99.90
14397;DHT22;50653;47.810;13.022;2022-09-28T08:07:33;11.00;99.90
14397;DHT22;50653;47.810;13.022;2022-09-28T08:10:04;11.00;99.90
14397;DHT22;50653;47.810;13.022;2022-09-28T08:12:45;11.10;99.90
14397;DHT22;50653;47.810;13.022;2022-09-28T08:15:32;11.10;99.90
14397;DHT22;50653;47.810;13.022;2022-09-28T08:18:25;11.20;99.90
14397;DHT22;50653;47.810;13.022;2022-09-28T08:20:51;11.20;99.90
14397;DHT22;50653;47.810;13.022;2022-09-28T08:23:36;11.10;99.90
14397;DHT22;50653;47.810;13.022;2022-09-28T08:26:03;11.20;99.90
14397;DHT22;50653;47.810;13.022;2022-09-28T08:28:29;11.20;99.90
14397;DHT22;50653;47.810;13.022;2022-09-28T08:31:00;11.10;99.90
14397;DHT22;50653;47.810;13.022;2022-09-28T08:33:31;11.10;99.90
14397;DHT22;50653;47.810;13.022;2022-09-28T08:36:15;11.20;99.90
14397;DHT22;50653;47.810;13.022;2022-09-28T08:38:59;11.10;99.90
14397;DHT22;50653;47.810;13.022;2022-09-28T08:41:53;11.10;99.90
14397;DHT22;50653;47.810;13.022;2022-09-28T08:44:44;11.20;99.90
14397;DHT22;50653;47.810;13.022;2022-09-28T08:47:36;11.20;99.90
14397;DHT22;50653;47.810;13.022;2022-09-28T08:50:36;11.20;99.90
14397;DHT22;50653;47.810;13.022;2022-09-28T08:56:47;11.30;99.90
14397;DHT22;50653;47.810;13.022;2022-09-28T08:59:17;11.30;99.90
14397;DHT22;50653;47.810;13.022;2022-09-28T09:01:55;11.20;99.90
14397;DHT22;50653;47.810;13.022;2022-09-28T09:04:23;11.20;99.90
14397;DHT22;50653;47.810;13.022;2022-09-28T09:07:20;11.20;99.90
14397;DHT22;50653;47.810;13.022;2022-09-28T09:12:44;11.30;99.90
14397;DHT22;50653;47.810;13.022;2022-09-28T09:18:16;11.30;99.90
14397;DHT22;50653;47.810;13.022;2022-09-28T09:24:26;11.40;99.90
14397;DHT22;50653;47.810;13.022;2022-09-28T09:27:04;11.40;99.90
14397;DHT22;50653;47.810;13.022;2022-09-28T09:29:36;11.50;99.90
14397;DHT22;50653;47.810;13.022;2022-09-28T09:34:49;11.50;99.90
14397;DHT22;50653;47.810;13.022;2022-09-28T09:38:18;11.60;99.90
14397;DHT22;50653;47.810;13.022;2022-09-28T09:41:52;11.60;99.90
14397;DHT22;50653;47.810;13.022;2022-09-28T09:45:12;11.60;99.90
14397;DHT22;50653;47.810;13.022;2022-09-28T09:48:01;11.60;99.90
14397;DHT22;50653;47.810;13.022;2022-09-28T09:50:33;11.60;99.90
14397;DHT22;50653;47.810;13.022;2022-09-28T09:55:48;11.60;99.90
14397;DHT22;50653;47.810;13.022;2022-09-28T09:58:35;11.60;99.90
14397;DHT22;50653;47.810;13.022;2022-09-28T10:01:17;11.60;99.90
14397;DHT22;50653;47.810;13.022;2022-09-28T10:04:23;11.60;99.90
14397;DHT22;50653;47.810;13.022;2022-09-28T10:06:58;11.70;99.90
14397;DHT22;50653;47.810;13.022;2022-09-28T10:09:30;11.80;99.90
14397;DHT22;50653;47.810;13.022;2022-09-28T10:12:17;11.70;99.90
14397;DHT22;50653;47.810;13.022;2022-09-28T10:14:43;11.70;99.90
14397;DHT22;50653;47.810;13.022;2022-09-28T10:17:12;11.80;99.90
14397;DHT22;50653;47.810;13.022;2022-09-28T10:20:12;11.80;99.90
14397;DHT22;50653;47.810;13.022;2022-09-28T10:22:41;11.80;99.90
14397;DHT22;50653;47.810;13.022;2022-09-28T10:25:12;11.90;99.90
14397;DHT22;50653;47.810;13.022;2022-09-28T10:27:42;11.90;99.90
14397;DHT22;50653;47.810;13.022;2022-09-28T10:30:13;11.90;99.90
14397;DHT22;50653;47.810;13.022;2022-09-28T10:32:47;11.90;99.90
14397;DHT22;50653;47.810;13.022;2022-09-28T10:35:42;11.80;99.90
14397;DHT22;50653;47.810;13.022;2022-09-28T10:38:14;11.90;99.90
14397;DHT22;50653;47.810;13.022;2022-09-28T10:40:54;11.90;99.90
14397;DHT22;50653;47.810;13.022;2022-09-28T10:43:38;11.90;99.90
14397;DHT22;50653;47.810;13.022;2022-09-28T10:46:20;11.90;99.90
14397;DHT22;50653;47.810;13.022;2022-09-28T10:51:48;12.00;99.90
14397;DHT22;50653;47.810;13.022;2022-09-28T10:54:20;12.00;99.90
14397;DHT22;50653;47.810;13.022;2022-09-28T10:56:50;12.00;99.90
14397;DHT22;50653;47.810;13.022;2022-09-28T11:01:55;12.10;99.90
14397;DHT22;50653;47.810;13.022;2022-09-28T11:04:25;12.00;99.90
14397;DHT22;50653;47.810;13.022;2022-09-28T11:06:52;12.00;99.90
14397;DHT22;50653;47.810;13.022;2022-09-28T11:09:29;12.10;99.90
14397;DHT22;50653;47.810;13.022;2022-09-28T11:11:58;12.00;99.90
14397;DHT22;50653;47.810;13.022;2022-09-28T11:14:37;12.00;99.90
14397;DHT22;50653;47.810;13.022;2022-09-28T11:17:28;12.00;99.90
14397;DHT22;50653;47.810;13.022;2022-09-28T11:20:01;12.10;99.90
14397;DHT22;50653;47.810;13.022;2022-09-28T11:22:46;12.10;99.90
14397;DHT22;50653;47.810;13.022;2022-09-28T11:27:42;12.10;99.90
14397;DHT22;50653;47.810;13.022;2022-09-28T11:30:45;12.10;99.90
14397;DHT22;50653;47.810;13.022;2022-09-28T11:33:38;12.10;99.90
14397;DHT22;50653;47.810;13.022;2022-09-28T11:37:01;12.10;99.90
14397;DHT22;50653;47.810;13.022;2022-09-28T11:42:28;12.20;99.90
14397;DHT22;50653;47.810;13.022;2022-09-28T11:48:00;12.20;99.90
14397;DHT22;50653;47.810;13.022;2022-09-28T11:58:56;12.30;99.90
14397;DHT22;50653;47.810;13.022;2022-09-28T12:01:45;12.30;99.90
14397;DHT22;50653;47.810;13.022;2022-09-28T12:04:38;12.40;99.90
14397;DHT22;50653;47.810;13.022;2022-09-28T12:07:13;12.40;99.90
14397;DHT22;50653;47.810;13.022;2022-09-28T12:09:57;12.30;99.90
14397;DHT22;50653;47.810;13.022;2022-09-28T12:12:32;12.30;99.90
14397;DHT22;50653;47.810;13.022;2022-09-28T12:15:18;12.40;99.90
14397;DHT22;50653;47.810;13.022;2022-09-28T12:18:07;12.40;99.90
14397;DHT22;50653;47.810;13.022;2022-09-28T12:20:44;12.40;99.90
14397;DHT22;50653;47.810;13.022;2022-09-28T12:23:21;12.40;99.90
14397;DHT22;50653;47.810;13.022;2022-09-28T12:26:02;12.50;99.90
14397;DHT22;50653;47.810;13.022;2022-09-28T12:28:40;12.50;99.90
14397;DHT22;50653;47.810;13.022;2022-09-28T12:34:00;12.60;99.90
14397;DHT22;50653;47.810;13.022;2022-09-28T12:36:45;12.60;99.90
14397;DHT22;50653;47.810;13.022;2022-09-28T12:48:07;12.50;99.90
14397;DHT22;50653;47.810;13.022;2022-09-28T12:51:07;12.50;99.90
14397;DHT22;50653;47.810;13.022;2022-09-28T12:53:51;12.50;99.90
14397;DHT22;50653;47.810;13.022;2022-09-28T12:56:28;12.60;99.90
14397;DHT22;50653;47.810;13.022;2022-09-28T13:07:50;12.60;99.90
14397;DHT22;50653;47.810;13.022;2022-09-28T13:10:39;12.60;99.90
14397;DHT22;50653;47.810;13.022;2022-09-28T13:16:04;12.60;99.90
14397;DHT22;50653;47.810;13.022;2022-09-28T13:18:42;12.50;99.90
14397;DHT22;50653;47.810;13.022;2022-09-28T13:23:46;12.50;99.90
14397;DHT22;50653;47.810;13.022;2022-09-28T13:26:23;12.40;99.90
14397;DHT22;50653;47.810;13.022;2022-09-28T13:28:52;12.40;99.90
14397;DHT22;50653;47.810;13.022;2022-09-28T13:31:23;12.40;99.90
14397;DHT22;50653;47.810;13.022;2022-09-28T13:33:55;12.40;99.90
14397;DHT22;50653;47.810;13.022;2022-09-28T13:38:51;12.30;99.90
14397;DHT22;50653;47.810;13.022;2022-09-28T13:41:23;12.30;99.90
14397;DHT22;50653;47.810;13.022;2022-09-28T13:49:21;12.20;99.90
14397;DHT22;50653;47.810;13.022;2022-09-28T14:00:11;12.10;99.90
14397;DHT22;50653;47.810;13.022;2022-09-28T14:05:32;12.10;99.90
14397;DHT22;50653;47.810;13.022;2022-09-28T14:11:21;12.10;99.90
14397;DHT22;50653;47.810;13.022;2022-09-28T14:18:49;12.00;99.90
14397;DHT22;50653;47.810;13.022;2022-09-28T14:21:56;12.00;99.90
14397;DHT22;50653;47.810;13.022;2022-09-28T14:24:59;12.10;99.90
14397;DHT22;50653;47.810;13.022;2022-09-28T14:30:24;11.80;99.90
14397;DHT22;50653;47.810;13.022;2022-09-28T14:32:54;11.70;99.90
14397;DHT22;50653;47.810;13.022;2022-09-28T14:35:32;11.70;99.90
14397;DHT22;50653;47.810;13.022;2022-09-28T14:38:14;11.70;99.90
14397;DHT22;50653;47.810;13.022;2022-09-28T14:43:36;11.70;99.90
14397;DHT22;50653;47.810;13.022;2022-09-28T14:59:23;11.70;99.90
14397;DHT22;50653;47.810;13.022;2022-09-28T15:02:04;11.80;99.90
14397;DHT22;50653;47.810;13.022;2022-09-28T15:04:33;11.70;99.90
14397;DHT22;50653;47.810;13.022;2022-09-28T15:07:03;11.70;99.90
14397;DHT22;50653;47.810;13.022;2022-09-28T15:14:44;11.70;99.90
14397;DHT22;50653;47.810;13.022;2022-09-28T15:17:11;11.70;99.90
14397;DHT22;50653;47.810;13.022;2022-09-28T15:22:36;11.70;99.90
14397;DHT22;50653;47.810;13.022;2022-09-28T15:25:07;11.60;99.90
14397;DHT22;50653;47.810;13.022;2022-09-28T15:27:38;11.60;99.90
14397;DHT22;50653;47.810;13.022;2022-09-28T15:30:25;11.70;99.90
14397;DHT22;50653;47.810;13.022;2022-09-28T15:32:55;11.60;99.90
14397;DHT22;50653;47.810;13.022;2022-09-28T15:35:23;11.60;99.90
14397;DHT22;50653;47.810;13.022;2022-09-28T15:37:51;11.60;99.90
14397;DHT22;50653;47.810;13.022;2022-09-28T15:40:30;11.60;99.90
14397;DHT22;50653;47.810;13.022;2022-09-28T15:42:58;11.60;99.90
14397;DHT22;50653;47.810;13.022;2022-09-28T15:45:35;11.60;99.90
14397;DHT22;50653;47.810;13.022;2022-09-28T15:48:19;11.70;99.90
14397;DHT22;50653;47.810;13.022;2022-09-28T15:50:59;11.60;99.90
14397;DHT22;50653;47.810;13.022;2022-09-28T15:53:25;11.70;99.90
14397;DHT22;50653;47.810;13.022;2022-09-28T15:55:52;11.70;99.90
14397;DHT22;50653;47.810;13.022;2022-09-28T15:58:23;11.70;99.90
14397;DHT22;50653;47.810;13.022;2022-09-28T16:00:50;11.70;99.90
14397;DHT22;50653;47.810;13.022;2022-09-28T16:03:36;11.60;99.90
14397;DHT22;50653;47.810;13.022;2022-09-28T16:06:09;11.70;99.90
14397;DHT22;50653;47.810;13.022;2022-09-28T16:14:17;11.80;99.90
14397;DHT22;50653;47.810;13.022;2022-09-28T16:16:50;11.70;99.90
14397;DHT22;50653;47.810;13.022;2022-09-28T16:19:24;11.70;99.90
14397;DHT22;50653;47.810;13.022;2022-09-28T16:21:56;11.70;99.90
14397;DHT22;50653;47.810;13.022;2022-09-28T16:24:33;11.90;99.90
14397;DHT22;50653;47.810;13.022;2022-09-28T16:35:25;11.80;99.90
14397;DHT22;50653;47.810;13.022;2022-09-28T16:37:57;11.80;99.90
14397;DHT22;50653;47.810;13.022;2022-09-28T16:40:23;11.90;99.90
14397;DHT22;50653;47.810;13.022;2022-09-28T16:42:49;11.90;99.90
14397;DHT22;50653;47.810;13.022;2022-09-28T16:45:18;11.90;99.90
14397;DHT22;50653;47.810;13.022;2022-09-28T16:47:45;11.90;99.90
14397;DHT22;50653;47.810;13.022;2022-09-28T16:50:14;11.90;99.90
14397;DHT22;50653;47.810;13.022;2022-09-28T16:52:41;11.90;99.90
14397;DHT22;50653;47.810;13.022;2022-09-28T16:55:26;11.80;99.90
14397;DHT22;50653;47.810;13.022;2022-09-28T16:57:52;11.90;99.90
14397;DHT22;50653;47.810;13.022;2022-09-28T17:00:23;11.80;99.90
14397;DHT22;50653;47.810;13.022;2022-09-28T17:02:49;11.70;99.90
14397;DHT22;50653;47.810;13.022;2022-09-28T17:05:16;11.70;99.90
14397;DHT22;50653;47.810;13.022;2022-09-28T17:07:47;11.70;99.90
14397;DHT22;50653;47.810;13.022;2022-09-28T17:12:41;11.70;99.90
14397;DHT22;50653;47.810;13.022;2022-09-28T17:15:06;11.70;99.90
14397;DHT22;50653;47.810;13.022;2022-09-28T17:17:32;11.60;99.90
14397;DHT22;50653;47.810;13.022;2022-09-28T17:19:58;11.50;99.90
14397;DHT22;50653;47.810;13.022;2022-09-28T17:22:23;11.50;99.90
14397;DHT22;50653;47.810;13.022;2022-09-28T17:24:49;11.40;99.90
14397;DHT22;50653;47.810;13.022;2022-09-28T17:27:17;11.50;99.90
14397;DHT22;50653;47.810;13.022;2022-09-28T17:29:43;11.50;99.90
14397;DHT22;50653;47.810;13.022;2022-09-28T17:32:16;11.40;99.90
14397;DHT22;50653;47.810;13.022;2022-09-28T17:34:42;11.50;99.90
14397;DHT22;50653;47.810;13.022;2022-09-28T17:37:12;11.50;99.90
14397;DHT22;50653;47.810;13.022;2022-09-28T17:39:38;11.60;99.90
14397;DHT22;50653;47.810;13.022;2022-09-28T17:42:04;11.50;99.90
14397;DHT22;50653;47.810;13.022;2022-09-28T17:44:30;11.50;99.90
14397;DHT22;50653;47.810;13.022;2022-09-28T17:46:55;11.40;99.90
14397;DHT22;50653;47.810;13.022;2022-09-28T17:49:21;11.50;99.90
14397;DHT22;50653;47.810;13.022;2022-09-28T17:51:46;11.50;99.90
14397;DHT22;50653;47.810;13.022;2022-09-28T17:54:14;11.40;99.90
14397;DHT22;50653;47.810;13.022;2022-09-28T17:56:44;11.30;99.90
14397;DHT22;50653;47.810;13.022;2022-09-28T17:59:13;11.30;99.90
14397;DHT22;50653;47.810;13.022;2022-09-28T18:01:40;11.30;99.90
14397;DHT22;50653;47.810;13.022;2022-09-28T18:04:07;11.30;99.90
14397;DHT22;50653;47.810;13.022;2022-09-28T18:06:35;11.30;99.90
14397;DHT22;50653;47.810;13.022;2022-09-28T18:09:05;11.30;99.90
14397;DHT22;50653;47.810;13.022;2022-09-28T18:11:33;11.00;99.90
14397;DHT22;50653;47.810;13.022;2022-09-28T18:13:58;11.00;99.90
14397;DHT22;50653;47.810;13.022;2022-09-28T18:16:24;11.00;99.90
14397;DHT22;50653;47.810;13.022;2022-09-28T18:18:52;11.10;99.90
14397;DHT22;50653;47.810;13.022;2022-09-28T18:21:17;11.10;99.90
14397;DHT22;50653;47.810;13.022;2022-09-28T18:23:44;11.20;99.90
14397;DHT22;50653;47.810;13.022;2022-09-28T18:26:11;11.30;99.90
14397;DHT22;50653;47.810;13.022;2022-09-28T18:28:37;11.20;99.90
14397;DHT22;50653;47.810;13.022;2022-09-28T18:31:07;11.10;99.90
14397;DHT22;50653;47.810;13.022;2022-09-28T18:33:33;11.20;99.90
14397;DHT22;50653;47.810;13.022;2022-09-28T18:36:00;11.10;99.90
14397;DHT22;50653;47.810;13.022;2022-09-28T18:38:25;11.10;99.90